Time;durP1;ratioP1;P1;durP2;ratioP2;P2;SDS_P1;SDS_P2;PMS_P1;PMS_P2;Temp;Humidity;BMP_temperature;BMP_pressure;BME280_temperature;BME280_humidity;BME280_pressure;Samples;Min_cycle;Max_cycle;Signal;HPM_P1;HPM_P2
2023/10/25 00:00:42;;;;;;;23.20;13.27;;;;;;;;;;5117862;28;20561;-67
2023/10/25 00:03:12;;;;;;;29.87;13.73;;;;;;;;;;5120617;27;20485;-68
2023/10/25 00:05:38;;;;;;;20.17;12.93;;;;;;;;;;5106967;27;20493;-68
2023/10/25 00:08:06;;;;;;;36.83;15.40;;;;;;;;;;5126115;27;20458;-68
2023/10/25 00:10:33;;;;;;;26.40;13.60;;;;;;;;;;5111544;27;20470;-69
2023/10/25 00:12:59;;;;;;;24.67;12.90;;;;;;;;;;5128786;27;20449;-68
2023/10/25 00:15:26;;;;;;;19.80;12.90;;;;;;;;;;5120701;27;20479;-68
2023/10/25 00:17:53;;;;;;;22.57;12.57;;;;;;;;;;5122472;27;20447;-68
2023/10/25 00:20:18;;;;;;;18.93;12.93;;;;;;;;;;5121060;28;20481;-68
2023/10/25 00:22:45;;;;;;;19.53;11.77;;;;;;;;;;5111341;27;20446;-68
2023/10/25 00:25:12;;;;;;;17.63;11.30;;;;;;;;;;5112766;28;20256;-68
2023/10/25 00:27:39;;;;;;;20.13;12.20;;;;;;;;;;5120370;28;20477;-68
2023/10/25 00:30:06;;;;;;;21.80;14.33;;;;;;;;;;5121696;27;20953;-68
2023/10/25 00:32:32;;;;;;;18.40;11.63;;;;;;;;;;5115629;27;20465;-68
2023/10/25 00:34:59;;;;;;;19.83;11.00;;;;;;;;;;5119273;27;20558;-68
2023/10/25 00:37:25;;;;;;;18.50;10.70;;;;;;;;;;5106709;28;20481;-67
2023/10/25 00:39:51;;;;;;;21.43;13.60;;;;;;;;;;5117366;28;20477;-69
2023/10/25 00:42:19;;;;;;;17.13;10.67;;;;;;;;;;5105191;28;20509;-69
2023/10/25 00:44:46;;;;;;;18.90;12.07;;;;;;;;;;5109850;27;20563;-68
2023/10/25 00:47:12;;;;;;;16.47;10.23;;;;;;;;;;5125207;27;20446;-68
2023/10/25 00:49:39;;;;;;;19.90;11.87;;;;;;;;;;5112944;27;20457;-68
2023/10/25 00:52:05;;;;;;;17.97;12.33;;;;;;;;;;5107993;27;20457;-68
2023/10/25 00:54:32;;;;;;;19.97;12.07;;;;;;;;;;5119487;27;20498;-69
2023/10/25 00:56:58;;;;;;;16.87;10.40;;;;;;;;;;5103688;28;20447;-69
2023/10/25 00:59:27;;;;;;;17.90;10.50;;;;;;;;;;5108864;28;20462;-69
2023/10/25 01:01:54;;;;;;;17.53;11.07;;;;;;;;;;5117169;27;20474;-70
2023/10/25 01:04:21;;;;;;;16.97;10.07;;;;;;;;;;5120274;28;20556;-69
2023/10/25 01:06:47;;;;;;;16.20;10.67;;;;;;;;;;5122182;27;20451;-68
2023/10/25 01:09:14;;;;;;;17.33;10.93;;;;;;;;;;5124223;27;20482;-69
2023/10/25 01:11:41;;;;;;;15.33;10.20;;;;;;;;;;5121069;27;20478;-69
2023/10/25 01:14:07;;;;;;;16.07;10.20;;;;;;;;;;5107441;28;20455;-69
2023/10/25 01:16:35;;;;;;;18.10;9.73;;;;;;;;;;5128459;27;20537;-68
2023/10/25 01:19:02;;;;;;;18.67;11.67;;;;;;;;;;5108606;27;21061;-69
2023/10/25 01:21:28;;;;;;;12.90;9.60;;;;;;;;;;5124663;27;20526;-69
2023/10/25 01:23:56;;;;;;;18.43;9.40;;;;;;;;;;5116163;27;20521;-68
2023/10/25 01:26:22;;;;;;;17.80;10.90;;;;;;;;;;5115754;27;20454;-69
2023/10/25 01:28:49;;;;;;;15.17;10.00;;;;;;;;;;5126867;27;20457;-70
2023/10/25 01:31:15;;;;;;;14.33;9.57;;;;;;;;;;5115557;27;20458;-69
2023/10/25 01:33:42;;;;;;;13.17;8.90;;;;;;;;;;5124678;27;20490;-69
2023/10/25 01:36:08;;;;;;;12.90;8.20;;;;;;;;;;5124044;27;20450;-70
2023/10/25 01:38:34;;;;;;;14.70;9.00;;;;;;;;;;5114535;28;20445;-69
2023/10/25 01:41:02;;;;;;;13.47;8.80;;;;;;;;;;5121197;27;20474;-69
2023/10/25 01:43:29;;;;;;;16.00;8.60;;;;;;;;;;5127861;27;20511;-70
2023/10/25 01:45:56;;;;;;;15.73;9.20;;;;;;;;;;5125218;27;20481;-68
2023/10/25 01:48:22;;;;;;;9.77;7.67;;;;;;;;;;5120454;28;20443;-68
2023/10/25 01:50:48;;;;;;;10.90;8.33;;;;;;;;;;5111221;28;20527;-69
2023/10/25 01:53:15;;;;;;;14.00;7.30;;;;;;;;;;5120943;28;20518;-68
2023/10/25 01:55:41;;;;;;;12.00;8.50;;;;;;;;;;5117312;28;20537;-69
2023/10/25 01:58:09;;;;;;;12.70;7.80;;;;;;;;;;5127876;28;20458;-69
2023/10/25 02:00:38;;;;;;;10.93;7.70;;;;;;;;;;5117910;28;20559;-69
2023/10/25 02:03:04;;;;;;;17.63;10.10;;;;;;;;;;5117704;28;21502;-70
2023/10/25 02:05:32;;;;;;;12.50;9.30;;;;;;;;;;5111020;28;20542;-70
2023/10/25 02:07:58;;;;;;;15.20;8.50;;;;;;;;;;5113174;28;20507;-69
2023/10/25 02:10:23;;;;;;;13.63;8.23;;;;;;;;;;5110007;28;21016;-69
2023/10/25 02:12:50;;;;;;;12.37;8.43;;;;;;;;;;5123415;28;20469;-69
2023/10/25 02:15:18;;;;;;;11.63;8.50;;;;;;;;;;5119447;28;20231;-70
2023/10/25 02:17:44;;;;;;;14.30;8.20;;;;;;;;;;5115025;28;20981;-69
2023/10/25 02:20:11;;;;;;;14.03;9.13;;;;;;;;;;5124059;28;20514;-70
2023/10/25 02:22:37;;;;;;;17.27;10.07;;;;;;;;;;5118351;28;20485;-70
2023/10/25 02:25:04;;;;;;;11.70;8.63;;;;;;;;;;5107424;28;20530;-69
2023/10/25 02:27:31;;;;;;;11.17;8.17;;;;;;;;;;5106493;28;20510;-69
2023/10/25 02:29:57;;;;;;;10.50;7.63;;;;;;;;;;5113326;28;20498;-69
2023/10/25 02:32:25;;;;;;;17.23;8.90;;;;;;;;;;5119847;28;20557;-69
2023/10/25 02:34:51;;;;;;;14.90;9.40;;;;;;;;;;5117935;28;20474;-69
2023/10/25 02:37:18;;;;;;;12.30;8.57;;;;;;;;;;5111635;28;20511;-69
2023/10/25 02:39:45;;;;;;;14.23;8.63;;;;;;;;;;5118949;28;20533;-69
2023/10/25 02:42:12;;;;;;;15.73;9.27;;;;;;;;;;5110708;28;20477;-69
2023/10/25 02:44:38;;;;;;;13.53;9.00;;;;;;;;;;5126244;28;20493;-70
2023/10/25 02:47:05;;;;;;;13.80;8.50;;;;;;;;;;5113592;28;20525;-70
2023/10/25 02:49:34;;;;;;;13.33;9.00;;;;;;;;;;5113428;28;20488;-69
2023/10/25 02:52:00;;;;;;;12.30;8.57;;;;;;;;;;5108437;28;20458;-70
2023/10/25 02:54:26;;;;;;;11.60;7.80;;;;;;;;;;5124770;28;20808;-69
2023/10/25 02:56:53;;;;;;;16.90;8.67;;;;;;;;;;5121609;28;20456;-70
2023/10/25 02:59:19;;;;;;;17.23;9.40;;;;;;;;;;5114292;28;20637;-69
2023/10/25 03:01:46;;;;;;;13.23;8.47;;;;;;;;;;5127793;27;20454;-68
2023/10/25 03:04:12;;;;;;;14.70;9.10;;;;;;;;;;5125233;27;20836;-69
2023/10/25 03:06:40;;;;;;;17.10;9.53;;;;;;;;;;5136909;27;20501;-69
2023/10/25 03:09:06;;;;;;;17.40;9.60;;;;;;;;;;5122282;27;20485;-69
2023/10/25 03:11:32;;;;;;;16.67;9.80;;;;;;;;;;5115820;28;20542;-69
2023/10/25 03:13:58;;;;;;;14.73;9.67;;;;;;;;;;5120356;27;20557;-69
2023/10/25 03:16:24;;;;;;;15.43;8.53;;;;;;;;;;5115606;27;20785;-69
2023/10/25 03:18:51;;;;;;;12.57;8.27;;;;;;;;;;5123230;27;20216;-69
2023/10/25 03:21:17;;;;;;;14.10;9.00;;;;;;;;;;5115235;27;20447;-69
2023/10/25 03:23:45;;;;;;;13.60;8.83;;;;;;;;;;5114152;27;20471;-69
2023/10/25 03:26:12;;;;;;;13.20;9.20;;;;;;;;;;5129249;27;20826;-68
2023/10/25 03:28:39;;;;;;;12.27;8.40;;;;;;;;;;5123493;27;20515;-69
2023/10/25 03:31:05;;;;;;;12.10;8.27;;;;;;;;;;5131860;27;20496;-69
2023/10/25 03:33:32;;;;;;;13.60;8.83;;;;;;;;;;5120641;27;20450;-68
2023/10/25 03:35:58;;;;;;;11.93;8.03;;;;;;;;;;5121799;28;20549;-69
2023/10/25 03:38:25;;;;;;;12.97;9.70;;;;;;;;;;5117048;27;20443;-70
2023/10/25 03:41:01;;;;;;;13.60;9.80;;;;;;;;;;5119887;27;20545;-70
2023/10/25 03:43:27;;;;;;;14.03;9.23;;;;;;;;;;5128686;27;20502;-69
2023/10/25 03:45:54;;;;;;;15.77;9.70;;;;;;;;;;5120345;27;20505;-69
2023/10/25 03:48:20;;;;;;;19.83;9.60;;;;;;;;;;5117274;28;20458;-70
2023/10/25 03:50:47;;;;;;;13.80;9.77;;;;;;;;;;5129558;27;20477;-69
2023/10/25 03:53:13;;;;;;;12.83;8.70;;;;;;;;;;5116404;27;20540;-69
2023/10/25 03:55:39;;;;;;;16.03;8.57;;;;;;;;;;5116101;28;20506;-68
2023/10/25 03:58:07;;;;;;;16.13;7.70;;;;;;;;;;5120117;27;20457;-68
2023/10/25 04:00:34;;;;;;;16.63;9.83;;;;;;;;;;5116086;28;20484;-69
2023/10/25 04:03:01;;;;;;;15.87;8.87;;;;;;;;;;5130055;27;20465;-69
2023/10/25 04:05:27;;;;;;;14.77;9.63;;;;;;;;;;5114506;28;20919;-69
2023/10/25 04:07:54;;;;;;;13.20;10.30;;;;;;;;;;5118296;28;20470;-69
2023/10/25 04:10:20;;;;;;;14.83;9.20;;;;;;;;;;5122061;27;20520;-70
2023/10/25 04:12:47;;;;;;;13.80;8.90;;;;;;;;;;5133715;27;20445;-69
2023/10/25 04:15:15;;;;;;;11.20;7.83;;;;;;;;;;5119533;27;20501;-68
2023/10/25 04:17:41;;;;;;;13.93;8.00;;;;;;;;;;5122887;27;20541;-68
2023/10/25 04:20:08;;;;;;;9.97;7.87;;;;;;;;;;5113668;27;20517;-68
2023/10/25 04:22:35;;;;;;;11.80;8.57;;;;;;;;;;5123994;27;20502;-68
2023/10/25 04:25:03;;;;;;;11.27;8.50;;;;;;;;;;5115674;27;20498;-68
2023/10/25 04:27:29;;;;;;;15.93;9.67;;;;;;;;;;5117408;27;20452;-68
2023/10/25 04:29:56;;;;;;;11.27;7.67;;;;;;;;;;5120584;27;20516;-69
2023/10/25 04:32:24;;;;;;;13.33;7.73;;;;;;;;;;5129984;27;20442;-69
2023/10/25 04:34:51;;;;;;;11.03;7.83;;;;;;;;;;5111032;27;20548;-69
2023/10/25 04:37:17;;;;;;;9.10;7.23;;;;;;;;;;5130649;27;20525;-66
2023/10/25 04:39:44;;;;;;;9.20;7.27;;;;;;;;;;5123698;27;20544;-68
2023/10/25 04:42:10;;;;;;;12.07;8.20;;;;;;;;;;5130526;27;20525;-68
2023/10/25 04:44:36;;;;;;;12.27;7.00;;;;;;;;;;5111109;28;21056;-69
2023/10/25 04:47:03;;;;;;;11.50;7.97;;;;;;;;;;5122942;27;20497;-68
2023/10/25 04:49:31;;;;;;;10.20;7.60;;;;;;;;;;5122440;27;20537;-69
2023/10/25 04:51:57;;;;;;;9.40;6.93;;;;;;;;;;5114304;27;20514;-68
2023/10/25 04:54:23;;;;;;;9.50;7.40;;;;;;;;;;5119893;27;20458;-69
2023/10/25 04:56:50;;;;;;;8.93;7.13;;;;;;;;;;5124132;27;20556;-70
2023/10/25 04:59:16;;;;;;;8.00;6.70;;;;;;;;;;5116865;27;20497;-68
2023/10/25 05:01:42;;;;;;;9.47;6.77;;;;;;;;;;5115081;27;20505;-68
2023/10/25 05:04:09;;;;;;;14.07;8.10;;;;;;;;;;5119902;27;20511;-73
2023/10/25 05:06:37;;;;;;;13.60;8.10;;;;;;;;;;5129412;27;20564;-73
2023/10/25 05:09:04;;;;;;;12.20;6.90;;;;;;;;;;5117294;27;20532;-68
2023/10/25 05:11:30;;;;;;;15.93;7.90;;;;;;;;;;5111171;27;20507;-66
2023/10/25 05:13:57;;;;;;;10.57;7.17;;;;;;;;;;5116338;27;20450;-67
2023/10/25 05:16:24;;;;;;;9.70;7.30;;;;;;;;;;5117473;27;20486;-67
2023/10/25 05:18:50;;;;;;;10.20;8.10;;;;;;;;;;5130461;27;20499;-67
2023/10/25 05:21:17;;;;;;;11.30;7.03;;;;;;;;;;5112665;27;20885;-67
2023/10/25 05:23:45;;;;;;;8.70;6.83;;;;;;;;;;5111133;27;20494;-66
2023/10/25 05:26:12;;;;;;;9.50;7.33;;;;;;;;;;5112594;27;20550;-66
2023/10/25 05:28:38;;;;;;;14.07;7.47;;;;;;;;;;5112980;27;20533;-66
2023/10/25 05:31:05;;;;;;;11.27;7.07;;;;;;;;;;5116430;27;20524;-66
2023/10/25 05:33:32;;;;;;;10.87;6.70;;;;;;;;;;5120069;27;20486;-66
2023/10/25 05:35:59;;;;;;;9.10;6.97;;;;;;;;;;5121766;27;21029;-66
2023/10/25 05:38:25;;;;;;;10.80;8.20;;;;;;;;;;5110256;28;20494;-66
2023/10/25 05:40:54;;;;;;;10.30;8.33;;;;;;;;;;5123460;28;20517;-66
2023/10/25 05:43:27;;;;;;;9.60;7.43;;;;;;;;;;5111395;28;20458;-67
2023/10/25 05:45:53;;;;;;;18.10;7.70;;;;;;;;;;5105618;28;20481;-66
2023/10/25 05:48:20;;;;;;;11.30;7.63;;;;;;;;;;5125534;28;20497;-67
2023/10/25 05:50:50;;;;;;;9.13;6.03;;;;;;;;;;5123708;28;20629;-66
2023/10/25 05:53:16;;;;;;;8.83;6.90;;;;;;;;;;5120036;28;20451;-66
2023/10/25 05:55:43;;;;;;;9.23;6.10;;;;;;;;;;5118076;28;20478;-66
2023/10/25 05:58:11;;;;;;;10.70;6.23;;;;;;;;;;5130049;28;20456;-68
2023/10/25 06:00:39;;;;;;;8.63;7.60;;;;;;;;;;5128541;28;20478;-67
2023/10/25 06:03:05;;;;;;;8.80;6.60;;;;;;;;;;5118943;28;20545;-66
2023/10/25 06:05:33;;;;;;;14.77;8.53;;;;;;;;;;5113076;28;20604;-67
2023/10/25 06:07:59;;;;;;;9.70;7.20;;;;;;;;;;5114778;28;20450;-67
2023/10/25 06:10:26;;;;;;;9.33;7.00;;;;;;;;;;5119945;28;20724;-68
2023/10/25 06:12:53;;;;;;;11.60;7.17;;;;;;;;;;5113759;28;20481;-67
2023/10/25 06:15:21;;;;;;;13.13;7.20;;;;;;;;;;5114307;28;20518;-67
2023/10/25 06:17:47;;;;;;;9.90;7.10;;;;;;;;;;5118798;28;20473;-67
2023/10/25 06:20:19;;;;;;;12.07;7.17;;;;;;;;;;5119050;28;20473;-66
2023/10/25 06:22:48;;;;;;;10.13;7.53;;;;;;;;;;5118763;28;20442;-67
2023/10/25 06:25:15;;;;;;;9.77;7.83;;;;;;;;;;5117391;28;20521;-67
2023/10/25 06:27:41;;;;;;;10.80;8.10;;;;;;;;;;5117739;28;20461;-68
2023/10/25 06:30:08;;;;;;;14.77;9.03;;;;;;;;;;5113072;28;20445;-68
2023/10/25 06:32:37;;;;;;;8.90;6.80;;;;;;;;;;5130656;28;20457;-68
2023/10/25 06:35:03;;;;;;;11.40;8.87;;;;;;;;;;5123872;28;20468;-67
2023/10/25 06:37:30;;;;;;;16.73;9.07;;;;;;;;;;5130430;27;20430;-67
2023/10/25 06:39:57;;;;;;;14.43;8.87;;;;;;;;;;5124418;27;20457;-66
2023/10/25 06:42:23;;;;;;;17.10;8.77;;;;;;;;;;5125210;27;20471;-67
2023/10/25 06:44:51;;;;;;;14.97;9.30;;;;;;;;;;5123239;27;20465;-67
2023/10/25 06:47:17;;;;;;;15.03;9.30;;;;;;;;;;5120689;28;20498;-67
2023/10/25 06:49:45;;;;;;;14.13;9.90;;;;;;;;;;5113620;28;20454;-66
2023/10/25 06:52:12;;;;;;;13.63;9.70;;;;;;;;;;5121793;27;20887;-67
2023/10/25 06:54:39;;;;;;;17.17;10.80;;;;;;;;;;5130623;27;20551;-67
2023/10/25 06:57:08;;;;;;;13.87;10.90;;;;;;;;;;5122407;27;20463;-67
2023/10/25 06:59:35;;;;;;;14.30;10.37;;;;;;;;;;5122459;27;20472;-67
2023/10/25 07:02:05;;;;;;;18.13;11.67;;;;;;;;;;5113384;27;20490;-68
2023/10/25 07:04:33;;;;;;;15.87;11.30;;;;;;;;;;5121027;27;20542;-67
2023/10/25 07:07:02;;;;;;;17.07;10.40;;;;;;;;;;5125445;27;20500;-68
2023/10/25 07:09:28;;;;;;;15.33;9.87;;;;;;;;;;5116931;27;20479;-67
2023/10/25 07:11:54;;;;;;;21.90;11.73;;;;;;;;;;5116223;28;20472;-68
2023/10/25 07:14:21;;;;;;;15.40;11.37;;;;;;;;;;5131095;27;20235;-65
2023/10/25 07:16:47;;;;;;;24.23;13.00;;;;;;;;;;5119428;27;20548;-68
2023/10/25 07:19:13;;;;;;;20.33;13.73;;;;;;;;;;5130170;27;20461;-66
2023/10/25 07:21:40;;;;;;;24.37;13.80;;;;;;;;;;5124179;27;20922;-67
2023/10/25 07:24:09;;;;;;;27.50;14.30;;;;;;;;;;5122491;27;20513;-66
2023/10/25 07:26:35;;;;;;;30.03;15.80;;;;;;;;;;5121133;27;20474;-66
2023/10/25 07:29:02;;;;;;;25.93;14.00;;;;;;;;;;5127805;27;20454;-66
2023/10/25 07:31:28;;;;;;;26.60;16.50;;;;;;;;;;5122240;28;20557;-66
2023/10/25 07:33:55;;;;;;;25.50;15.63;;;;;;;;;;5127925;27;21057;-67
2023/10/25 07:36:21;;;;;;;23.43;15.53;;;;;;;;;;5129706;27;20500;-66
2023/10/25 07:38:48;;;;;;;21.03;14.77;;;;;;;;;;5123735;27;20461;-66
2023/10/25 07:41:15;;;;;;;18.33;13.30;;;;;;;;;;5123559;27;20461;-65
2023/10/25 07:43:43;;;;;;;18.50;14.57;;;;;;;;;;5112881;28;20450;-68
2023/10/25 07:46:10;;;;;;;17.33;11.27;;;;;;;;;;5125951;27;20502;-66
2023/10/25 07:48:36;;;;;;;11.53;9.47;;;;;;;;;;5120810;28;20734;-68
2023/10/25 07:51:04;;;;;;;11.97;8.93;;;;;;;;;;5122541;27;20993;-68
2023/10/25 07:53:30;;;;;;;10.33;9.00;;;;;;;;;;5133453;27;20532;-67
2023/10/25 07:55:56;;;;;;;10.23;8.00;;;;;;;;;;5116372;28;20458;-67
2023/10/25 07:58:24;;;;;;;9.60;8.20;;;;;;;;;;5121648;27;20477;-66
2023/10/25 08:00:51;;;;;;;10.87;8.83;;;;;;;;;;5112527;27;20583;-67
2023/10/25 08:03:17;;;;;;;8.13;7.43;;;;;;;;;;5121560;28;20469;-69
2023/10/25 08:05:44;;;;;;;8.87;7.97;;;;;;;;;;5131763;27;20533;-66
2023/10/25 08:08:10;;;;;;;9.13;8.20;;;;;;;;;;5119522;27;20529;-68
2023/10/25 08:10:37;;;;;;;8.50;7.60;;;;;;;;;;5128847;27;20446;-65
2023/10/25 08:13:04;;;;;;;9.40;7.83;;;;;;;;;;5120705;28;20511;-66
2023/10/25 08:15:32;;;;;;;9.67;8.50;;;;;;;;;;5107447;28;20483;-65
2023/10/25 08:17:59;;;;;;;9.73;8.73;;;;;;;;;;5107077;28;20442;-66
2023/10/25 08:20:25;;;;;;;9.97;8.97;;;;;;;;;;5128714;27;20454;-66
2023/10/25 08:22:52;;;;;;;9.30;8.40;;;;;;;;;;5131957;27;20549;-67
2023/10/25 08:25:18;;;;;;;9.27;8.37;;;;;;;;;;5126172;27;20513;-67
2023/10/25 08:27:44;;;;;;;8.23;7.43;;;;;;;;;;5129474;27;20524;-69
2023/10/25 08:30:11;;;;;;;7.23;6.40;;;;;;;;;;5124728;27;20819;-68
2023/10/25 08:32:39;;;;;;;8.63;7.83;;;;;;;;;;5132996;27;20498;-65
2023/10/25 08:35:06;;;;;;;7.13;6.40;;;;;;;;;;5123518;27;20545;-70
2023/10/25 08:37:32;;;;;;;7.90;7.30;;;;;;;;;;5123739;27;20442;-67
2023/10/25 08:39:59;;;;;;;7.40;6.77;;;;;;;;;;5116117;27;20494;-68
2023/10/25 08:42:25;;;;;;;7.17;6.67;;;;;;;;;;5109100;27;20478;-67
2023/10/25 08:44:51;;;;;;;8.07;7.27;;;;;;;;;;5110093;28;21026;-67
2023/10/25 08:47:19;;;;;;;9.90;7.20;;;;;;;;;;5126763;27;20500;-68
2023/10/25 08:49:47;;;;;;;8.83;8.00;;;;;;;;;;5127902;27;20521;-67
2023/10/25 08:52:16;;;;;;;18.07;7.40;;;;;;;;;;5131954;27;20476;-67
2023/10/25 08:54:42;;;;;;;6.97;6.37;;;;;;;;;;5124032;27;20494;-67
2023/10/25 08:57:09;;;;;;;6.40;5.90;;;;;;;;;;5114766;27;20449;-68
2023/10/25 08:59:43;;;;;;;7.57;6.87;;;;;;;;;;5124977;27;20457;-66
2023/10/25 09:02:10;;;;;;;6.70;6.07;;;;;;;;;;5111726;27;20446;-66
2023/10/25 09:04:36;;;;;;;7.87;6.20;;;;;;;;;;5111876;27;20477;-66
2023/10/25 09:07:24;;;;;;;5.60;5.10;;;;;;;;;;5132209;27;20748;-67
2023/10/25 09:09:51;;;;;;;8.53;6.00;;;;;;;;;;5125516;27;20478;-67
2023/10/25 09:12:19;;;;;;;8.33;6.97;;;;;;;;;;5123733;27;20468;-67
2023/10/25 09:14:46;;;;;;;6.53;5.80;;;;;;;;;;5119683;27;20457;-67
2023/10/25 09:17:13;;;;;;;7.10;6.40;;;;;;;;;;5125982;27;20461;-68
2023/10/25 09:19:42;;;;;;;6.80;6.20;;;;;;;;;;5119981;28;20470;-66
2023/10/25 09:22:21;;;;;;;6.47;5.77;;;;;;;;;;5120194;28;20465;-69
2023/10/25 09:24:48;;;;;;;5.77;5.20;;;;;;;;;;5119482;28;20482;-69
2023/10/25 09:27:14;;;;;;;6.80;4.90;;;;;;;;;;5103931;28;20502;-67
2023/10/25 09:29:42;;;;;;;6.97;4.80;;;;;;;;;;5118000;28;20503;-65
2023/10/25 09:32:09;;;;;;;5.20;4.17;;;;;;;;;;5119793;28;21198;-69
2023/10/25 09:34:35;;;;;;;5.87;4.40;;;;;;;;;;5120026;28;20521;-68
2023/10/25 09:37:03;;;;;;;4.40;4.10;;;;;;;;;;5118151;27;20472;-67
2023/10/25 09:39:32;;;;;;;4.93;4.13;;;;;;;;;;5117947;27;20453;-67
2023/10/25 09:42:02;;;;;;;4.50;4.10;;;;;;;;;;5133469;27;20946;-67
2023/10/25 09:44:31;;;;;;;5.03;4.60;;;;;;;;;;5128299;27;20526;-68
2023/10/25 09:46:59;;;;;;;4.40;3.90;;;;;;;;;;5125809;28;20476;-68
2023/10/25 09:49:29;;;;;;;4.47;3.70;;;;;;;;;;5126381;27;20454;-66
2023/10/25 09:52:05;;;;;;;5.37;3.50;;;;;;;;;;5124535;28;20444;-67
2023/10/25 09:54:33;;;;;;;5.80;3.70;;;;;;;;;;5114079;28;20457;-67
2023/10/25 09:57:02;;;;;;;4.43;4.03;;;;;;;;;;5113327;28;20474;-68
2023/10/25 09:59:29;;;;;;;6.87;3.60;;;;;;;;;;5120497;28;20518;-69
2023/10/25 10:01:56;;;;;;;6.30;4.13;;;;;;;;;;5112406;28;20541;-68
2023/10/25 10:04:26;;;;;;;4.50;3.20;;;;;;;;;;5119101;28;20530;-67
2023/10/25 10:06:59;;;;;;;3.20;2.90;;;;;;;;;;5121618;28;20531;-68
2023/10/25 10:09:41;;;;;;;4.53;3.83;;;;;;;;;;5115191;28;20442;-67
2023/10/25 10:12:11;;;;;;;4.87;4.07;;;;;;;;;;5134975;27;20546;-67
2023/10/25 10:14:38;;;;;;;4.50;3.23;;;;;;;;;;5112801;27;20553;-68
2023/10/25 10:17:05;;;;;;;6.43;3.70;;;;;;;;;;5118189;27;20530;-68
2023/10/25 10:19:32;;;;;;;4.00;3.60;;;;;;;;;;5126688;27;20500;-68
2023/10/25 10:22:08;;;;;;;6.33;3.20;;;;;;;;;;5121530;27;20453;-68
2023/10/25 10:24:42;;;;;;;6.10;3.90;;;;;;;;;;5117208;27;20489;-68
2023/10/25 10:27:10;;;;;;;5.73;3.70;;;;;;;;;;5134363;27;20560;-65
2023/10/25 10:29:40;;;;;;;7.10;3.70;;;;;;;;;;5120207;28;20485;-67
2023/10/25 10:32:07;;;;;;;4.67;3.90;;;;;;;;;;5121322;28;20438;-69
2023/10/25 10:34:41;;;;;;;8.43;3.60;;;;;;;;;;5115871;27;20969;-69
2023/10/25 10:37:10;;;;;;;6.30;3.30;;;;;;;;;;5117619;28;20485;-68
2023/10/25 10:39:38;;;;;;;5.77;3.40;;;;;;;;;;5118831;27;20458;-68
2023/10/25 10:42:05;;;;;;;6.70;4.67;;;;;;;;;;5117872;27;20445;-67
2023/10/25 10:44:36;;;;;;;4.20;3.47;;;;;;;;;;5121862;27;20457;-67
2023/10/25 10:47:06;;;;;;;4.40;4.00;;;;;;;;;;5121520;28;20474;-68
2023/10/25 10:49:34;;;;;;;6.20;4.93;;;;;;;;;;5127512;27;20460;-70
2023/10/25 10:52:02;;;;;;;6.10;3.70;;;;;;;;;;5125420;27;20537;-69
2023/10/25 10:54:29;;;;;;;5.00;4.23;;;;;;;;;;5124465;27;21219;-70
2023/10/25 10:56:55;;;;;;;4.90;4.40;;;;;;;;;;5122960;27;20509;-68
2023/10/25 10:59:24;;;;;;;7.77;4.77;;;;;;;;;;5134627;27;20926;-68
2023/10/25 11:01:52;;;;;;;6.23;4.40;;;;;;;;;;5125203;27;20460;-70
2023/10/25 11:04:18;;;;;;;8.20;5.47;;;;;;;;;;5117554;28;20478;-68
2023/10/25 11:06:45;;;;;;;7.03;4.20;;;;;;;;;;5118252;28;20484;-69
2023/10/25 11:09:11;;;;;;;8.30;5.03;;;;;;;;;;5126185;27;20998;-68
2023/10/25 11:11:38;;;;;;;9.57;6.43;;;;;;;;;;5133876;27;20459;-68
2023/10/25 11:14:04;;;;;;;7.40;4.20;;;;;;;;;;5120242;28;20877;-68
2023/10/25 11:16:31;;;;;;;4.93;4.47;;;;;;;;;;5136697;27;20481;-68
2023/10/25 11:19:07;;;;;;;4.97;4.00;;;;;;;;;;5126921;27;20455;-68
2023/10/25 11:21:34;;;;;;;5.93;4.37;;;;;;;;;;5126699;27;20476;-68
2023/10/25 11:24:06;;;;;;;5.57;4.50;;;;;;;;;;5114223;27;20498;-70
2023/10/25 11:26:37;;;;;;;6.50;4.50;;;;;;;;;;5122543;27;20450;-67
2023/10/25 11:29:03;;;;;;;4.33;3.93;;;;;;;;;;5123739;27;20470;-69
2023/10/25 11:31:31;;;;;;;5.90;5.07;;;;;;;;;;5120489;28;20564;-69
2023/10/25 11:33:58;;;;;;;4.53;4.13;;;;;;;;;;5119047;28;20491;-70
2023/10/25 11:36:28;;;;;;;6.57;4.10;;;;;;;;;;5129269;27;20505;-68
2023/10/25 11:39:00;;;;;;;4.50;4.10;;;;;;;;;;5127185;27;20445;-68
2023/10/25 11:41:26;;;;;;;6.03;4.33;;;;;;;;;;5125838;27;20455;-68
2023/10/25 11:43:53;;;;;;;5.40;3.87;;;;;;;;;;5114254;28;20538;-69
2023/10/25 11:46:20;;;;;;;5.03;4.50;;;;;;;;;;5122315;28;20442;-70
2023/10/25 11:48:47;;;;;;;7.70;4.83;;;;;;;;;;5129376;27;20478;-67
2023/10/25 11:51:13;;;;;;;8.77;4.60;;;;;;;;;;5126771;27;20484;-67
2023/10/25 11:53:41;;;;;;;8.67;4.17;;;;;;;;;;5117943;28;20486;-67
2023/10/25 11:56:08;;;;;;;6.07;4.37;;;;;;;;;;5130356;27;20453;-68
2023/10/25 11:58:34;;;;;;;4.80;4.40;;;;;;;;;;5129080;27;20438;-69
2023/10/25 12:01:04;;;;;;;5.63;4.90;;;;;;;;;;5124493;27;20541;-68
2023/10/25 12:03:30;;;;;;;10.40;5.23;;;;;;;;;;5115665;27;20449;-70
2023/10/25 12:05:57;;;;;;;7.37;4.90;;;;;;;;;;5110205;27;20545;-69
2023/10/25 12:08:23;;;;;;;5.50;4.93;;;;;;;;;;5122189;27;20546;-67
2023/10/25 12:10:52;;;;;;;8.80;5.17;;;;;;;;;;5122621;27;20977;-68
2023/10/25 12:13:18;;;;;;;5.93;5.33;;;;;;;;;;5116614;27;20450;-68
2023/10/25 12:15:45;;;;;;;4.87;4.33;;;;;;;;;;5128066;27;20485;-67
2023/10/25 12:18:11;;;;;;;5.23;4.60;;;;;;;;;;5113482;28;20895;-68
2023/10/25 12:20:38;;;;;;;6.53;4.93;;;;;;;;;;5129208;27;21056;-67
2023/10/25 12:23:04;;;;;;;5.53;4.60;;;;;;;;;;5115800;27;20457;-68
2023/10/25 12:25:31;;;;;;;5.07;4.57;;;;;;;;;;5121808;27;20505;-69
2023/10/25 12:27:59;;;;;;;8.50;5.13;;;;;;;;;;5124645;27;20513;-69
2023/10/25 12:30:25;;;;;;;8.53;4.53;;;;;;;;;;5132962;27;20442;-66
2023/10/25 12:32:53;;;;;;;6.57;4.70;;;;;;;;;;5130818;27;20477;-68
2023/10/25 12:35:20;;;;;;;6.83;5.40;;;;;;;;;;5126661;27;20450;-67
2023/10/25 12:37:46;;;;;;;7.50;5.73;;;;;;;;;;5126572;27;20488;-68
2023/10/25 12:40:13;;;;;;;6.53;4.43;;;;;;;;;;5120120;28;20450;-67
2023/10/25 12:42:40;;;;;;;5.07;4.50;;;;;;;;;;5122795;27;20463;-70
2023/10/25 12:45:09;;;;;;;9.40;4.33;;;;;;;;;;5115019;27;20453;-66
2023/10/25 12:47:35;;;;;;;6.80;4.50;;;;;;;;;;5111526;28;20482;-68
2023/10/25 12:50:04;;;;;;;7.20;5.20;;;;;;;;;;5112354;28;20458;-67
2023/10/25 12:52:31;;;;;;;5.00;4.23;;;;;;;;;;5120699;28;20438;-66
2023/10/25 12:54:57;;;;;;;5.80;4.70;;;;;;;;;;5117635;27;20819;-68
2023/10/25 12:57:23;;;;;;;15.40;5.20;;;;;;;;;;5115774;27;20458;-67
2023/10/25 12:59:50;;;;;;;8.87;5.10;;;;;;;;;;5116415;27;20518;-68
2023/10/25 13:02:18;;;;;;;9.07;5.20;;;;;;;;;;5123217;27;20448;-66
2023/10/25 13:04:44;;;;;;;9.33;5.77;;;;;;;;;;5132286;27;20879;-66
2023/10/25 13:07:11;;;;;;;6.10;5.17;;;;;;;;;;5132037;27;20470;-67
2023/10/25 13:09:38;;;;;;;8.27;5.80;;;;;;;;;;5114346;27;20601;-67
2023/10/25 13:12:06;;;;;;;10.20;5.13;;;;;;;;;;5114256;27;20503;-68
2023/10/25 13:14:32;;;;;;;6.80;5.70;;;;;;;;;;5124569;27;20442;-66
2023/10/25 13:16:59;;;;;;;6.37;5.50;;;;;;;;;;5134493;27;20445;-67
2023/10/25 13:19:29;;;;;;;13.00;7.03;;;;;;;;;;5120578;27;20467;-68
2023/10/25 13:21:55;;;;;;;10.53;4.67;;;;;;;;;;5125110;27;20437;-68
2023/10/25 13:24:22;;;;;;;7.00;6.13;;;;;;;;;;5112699;27;21048;-67
2023/10/25 13:26:48;;;;;;;9.23;4.80;;;;;;;;;;5114302;28;20455;-68
2023/10/25 13:29:15;;;;;;;7.97;4.80;;;;;;;;;;5123945;27;20474;-68
2023/10/25 13:31:41;;;;;;;4.63;4.13;;;;;;;;;;5110549;27;20496;-69
2023/10/25 13:34:07;;;;;;;7.60;4.40;;;;;;;;;;5104200;27;20513;-69
2023/10/25 13:36:35;;;;;;;5.03;4.50;;;;;;;;;;5112836;27;21076;-68
2023/10/25 13:39:03;;;;;;;6.47;4.30;;;;;;;;;;5122816;27;20514;-68
2023/10/25 13:41:29;;;;;;;4.30;3.90;;;;;;;;;;5113730;27;20901;-68
2023/10/25 13:43:55;;;;;;;6.57;4.00;;;;;;;;;;5113501;28;20446;-68
2023/10/25 13:46:22;;;;;;;4.80;4.33;;;;;;;;;;5115975;28;20500;-66
2023/10/25 13:48:48;;;;;;;6.30;4.57;;;;;;;;;;5122218;27;20520;-69
2023/10/25 13:51:14;;;;;;;4.37;3.83;;;;;;;;;;5116492;28;20518;-69
2023/10/25 13:53:42;;;;;;;7.03;3.50;;;;;;;;;;5132671;28;20575;-68
2023/10/25 13:56:12;;;;;;;4.10;3.70;;;;;;;;;;5118989;28;20489;-68
2023/10/25 13:58:39;;;;;;;3.80;3.40;;;;;;;;;;5115775;28;20462;-68
2023/10/25 14:01:06;;;;;;;5.33;4.00;;;;;;;;;;5113392;28;20463;-68
2023/10/25 14:03:33;;;;;;;4.70;3.90;;;;;;;;;;5116880;28;20470;-67
2023/10/25 14:06:03;;;;;;;6.73;4.23;;;;;;;;;;5113053;28;20453;-68
2023/10/25 14:08:29;;;;;;;4.10;3.70;;;;;;;;;;5104783;28;20479;-68
2023/10/25 14:10:58;;;;;;;4.80;4.13;;;;;;;;;;5114044;28;20484;-67
2023/10/25 14:13:25;;;;;;;4.20;3.60;;;;;;;;;;5127580;28;20454;-68
2023/10/25 14:15:51;;;;;;;6.37;3.80;;;;;;;;;;5109979;28;20474;-68
2023/10/25 14:18:17;;;;;;;6.67;3.60;;;;;;;;;;5129291;28;20469;-67
2023/10/25 14:20:44;;;;;;;6.83;4.10;;;;;;;;;;5131758;28;20530;-66
2023/10/25 14:23:11;;;;;;;5.90;3.87;;;;;;;;;;5114965;28;20477;-67
2023/10/25 14:25:38;;;;;;;5.63;3.60;;;;;;;;;;5118676;28;20508;-67
2023/10/25 14:28:08;;;;;;;3.87;3.53;;;;;;;;;;5110619;28;20513;-67
2023/10/25 14:30:37;;;;;;;4.93;2.97;;;;;;;;;;5105363;28;20534;-69
2023/10/25 14:33:03;;;;;;;4.93;4.00;;;;;;;;;;5128996;28;20485;-68